Time;durP1;ratioP1;P1;durP2;ratioP2;P2;SDS_P1;SDS_P2;PMS_P1;PMS_P2;Temp;Humidity;BMP_temperature;BMP_pressure;BME280_temperature;BME280_humidity;BME280_pressure;Samples;Min_cycle;Max_cycle;Signal;HPM_P1;HPM_P2
2021/07/12 00:00:50;;;;;;;9.57;8.23;;;19.00;99.90;;;;;;5101339;27;20469;-79
2021/07/12 00:03:16;;;;;;;12.02;10.00;;;19.00;99.90;;;;;;5103183;27;20395;-79
2021/07/12 00:05:42;;;;;;;14.27;9.98;;;18.90;99.90;;;;;;5121659;27;20039;-79
2021/07/12 00:08:09;;;;;;;11.32;9.07;;;18.80;99.90;;;;;;5122986;27;20462;-78
2021/07/12 00:10:36;;;;;;;11.23;9.57;;;18.80;99.90;;;;;;5083508;27;20044;-79
2021/07/12 00:13:03;;;;;;;10.68;9.68;;;18.80;99.90;;;;;;5107541;27;20092;-79
2021/07/12 00:15:31;;;;;;;11.70;9.48;;;18.80;99.90;;;;;;5124222;27;20171;-79
2021/07/12 00:17:57;;;;;;;10.32;9.00;;;18.70;99.90;;;;;;5107079;27;20035;-79
2021/07/12 00:20:23;;;;;;;11.57;9.90;;;18.70;99.90;;;;;;5103388;27;20031;-79
2021/07/12 00:22:50;;;;;;;10.93;9.82;;;18.70;99.90;;;;;;5101119;27;20066;-79
2021/07/12 00:25:17;;;;;;;12.10;9.50;;;18.60;99.90;;;;;;5104001;27;20108;-79
2021/07/12 00:27:43;;;;;;;11.18;10.07;;;18.60;99.90;;;;;;5105353;27;20111;-79
2021/07/12 00:30:12;;;;;;;12.60;11.30;;;18.70;99.90;;;;;;5119393;27;20106;-80
2021/07/12 00:32:39;;;;;;;12.15;10.50;;;18.70;99.90;;;;;;5117703;27;20490;-79
2021/07/12 00:35:09;;;;;;;12.52;11.27;;;18.70;99.90;;;;;;5098474;27;20491;-79
2021/07/12 00:37:36;;;;;;;13.32;11.93;;;18.60;99.90;;;;;;5090376;27;20043;-78
2021/07/12 00:40:04;;;;;;;13.70;11.05;;;18.60;99.90;;;;;;5122972;27;20122;-77
2021/07/12 00:42:30;;;;;;;12.15;10.73;;;18.60;99.90;;;;;;5121332;27;20085;-77
2021/07/12 00:44:56;;;;;;;11.85;10.65;;;18.70;99.90;;;;;;5120353;27;20040;-77
2021/07/12 00:47:22;;;;;;;15.45;11.75;;;18.70;99.90;;;;;;5123007;27;20031;-77
2021/07/12 00:49:48;;;;;;;11.77;10.57;;;18.70;99.90;;;;;;5100738;27;20031;-77
2021/07/12 00:52:13;;;;;;;13.05;10.02;;;18.70;99.90;;;;;;5101026;27;20201;-77
2021/07/12 00:54:39;;;;;;;12.43;10.68;;;18.70;99.90;;;;;;5089577;27;20032;-77
2021/07/12 00:57:06;;;;;;;10.55;9.55;;;18.70;99.90;;;;;;5100502;27;20051;-77
2021/07/12 00:59:33;;;;;;;12.38;11.07;;;18.80;99.90;;;;;;5102109;28;20123;-78
2021/07/12 01:02:02;;;;;;;11.35;10.23;;;18.80;99.90;;;;;;5120491;27;20031;-79
2021/07/12 01:04:29;;;;;;;11.18;10.07;;;18.80;99.90;;;;;;5129305;27;20035;-79
2021/07/12 01:06:55;;;;;;;12.75;11.40;;;18.90;99.90;;;;;;5127920;27;20390;-79
2021/07/12 01:09:21;;;;;;;12.38;11.18;;;18.90;99.90;;;;;;5120828;27;20032;-79
2021/07/12 01:12:04;;;;;;;12.27;11.07;;;18.90;99.90;;;;;;5106673;28;20043;-78
2021/07/12 01:14:57;;;;;;;11.00;9.95;;;18.90;99.90;;;;;;5135193;27;20470;-79
2021/07/12 01:17:40;;;;;;;10.85;9.85;;;18.90;99.90;;;;;;5123598;27;20099;-79
2021/07/12 01:20:46;;;;;;;12.15;10.05;;;18.90;99.90;;;;;;5122486;27;20031;-79
2021/07/12 01:23:26;;;;;;;11.85;10.27;;;19.00;99.90;;;;;;5107865;28;20459;-79
2021/07/12 01:26:30;;;;;;;13.50;10.35;;;19.00;99.90;;;;;;5095328;27;20035;-79
2021/07/12 01:29:29;;;;;;;11.25;10.15;;;19.00;99.90;;;;;;5085643;27;20047;-79
2021/07/12 01:32:03;;;;;;;11.50;10.40;;;19.00;99.90;;;;;;5100556;28;20518;-79
2021/07/12 01:34:58;;;;;;;10.83;9.53;;;19.00;99.90;;;;;;5104018;27;20050;-79
2021/07/12 01:38:01;;;;;;;12.02;10.73;;;18.90;99.90;;;;;;5126564;27;20047;-79
2021/07/12 01:40:46;;;;;;;10.80;9.70;;;18.90;99.90;;;;;;5098706;27;20031;-79
2021/07/12 01:43:33;;;;;;;11.38;9.27;;;18.90;99.90;;;;;;5097027;27;20032;-79
2021/07/12 01:46:21;;;;;;;12.35;9.70;;;19.00;99.90;;;;;;5103563;27;20066;-79
2021/07/12 01:49:00;;;;;;;11.27;9.65;;;19.00;99.90;;;;;;5102335;27;20088;-79
2021/07/12 01:51:56;;;;;;;10.85;9.57;;;18.90;99.90;;;;;;5108026;27;20039;-79
2021/07/12 01:54:33;;;;;;;12.40;10.65;;;18.90;99.90;;;;;;5069870;27;20485;-79
2021/07/12 01:57:07;;;;;;;11.15;10.07;;;18.90;99.90;;;;;;5119659;27;20067;-79
2021/07/12 02:00:01;;;;;;;11.70;10.07;;;18.90;99.90;;;;;;5100040;27;20035;-78
2021/07/12 02:02:29;;;;;;;13.55;9.73;;;18.90;99.90;;;;;;5114268;27;20044;-79
2021/07/12 02:05:03;;;;;;;11.55;9.98;;;18.90;99.90;;;;;;5123086;27;20039;-78
2021/07/12 02:07:35;;;;;;;11.32;10.18;;;18.80;99.90;;;;;;5098531;27;20031;-79
2021/07/12 02:10:03;;;;;;;11.55;10.43;;;18.80;99.90;;;;;;5122230;27;20036;-79
2021/07/12 02:12:32;;;;;;;12.57;10.23;;;18.90;99.90;;;;;;5124896;27;20039;-78
2021/07/12 02:14:59;;;;;;;12.95;11.05;;;18.80;99.90;;;;;;5121286;27;20482;-79
2021/07/12 02:17:26;;;;;;;12.15;10.85;;;18.80;99.90;;;;;;5122427;27;20046;-78
2021/07/12 02:19:53;;;;;;;11.73;10.57;;;18.80;99.90;;;;;;5103958;27;20043;-79
2021/07/12 02:22:20;;;;;;;13.30;11.77;;;18.80;99.90;;;;;;5117073;27;20043;-79
2021/07/12 02:24:49;;;;;;;13.32;11.40;;;18.80;99.90;;;;;;5120279;27;20501;-79
2021/07/12 02:27:17;;;;;;;14.20;11.52;;;18.80;99.90;;;;;;5124690;27;20027;-78
2021/07/12 02:29:43;;;;;;;14.40;11.43;;;18.80;99.90;;;;;;5105845;28;20085;-78
2021/07/12 02:32:10;;;;;;;13.93;11.40;;;18.80;99.90;;;;;;5101207;27;20035;-79
2021/07/12 02:34:37;;;;;;;13.73;11.10;;;18.70;99.90;;;;;;5102861;27;20142;-79
2021/07/12 02:37:04;;;;;;;12.82;11.52;;;18.70;99.90;;;;;;5101171;28;20043;-79
2021/07/12 02:39:32;;;;;;;12.90;10.98;;;18.70;99.90;;;;;;5105968;27;20057;-78
2021/07/12 02:41:58;;;;;;;12.90;11.43;;;18.60;99.90;;;;;;5102006;27;20028;-79
2021/07/12 02:44:25;;;;;;;13.98;12.57;;;18.60;99.90;;;;;;5126808;27;20083;-79
2021/07/12 02:46:51;;;;;;;15.07;12.05;;;18.60;99.90;;;;;;5126901;27;20039;-78
2021/07/12 02:49:20;;;;;;;12.80;11.35;;;18.50;99.90;;;;;;5124789;27;20047;-79
2021/07/12 02:51:54;;;;;;;13.48;12.18;;;18.50;99.90;;;;;;5105262;27;20049;-79
2021/07/12 02:54:28;;;;;;;15.60;13.18;;;18.40;99.90;;;;;;5108381;27;20035;-78
2021/07/12 02:56:55;;;;;;;14.77;12.45;;;18.30;99.90;;;;;;5125886;27;20031;-79
2021/07/12 02:59:21;;;;;;;14.55;13.05;;;18.40;99.90;;;;;;5124914;27;20040;-79
2021/07/12 03:01:47;;;;;;;14.60;13.10;;;18.30;99.90;;;;;;5130804;27;20035;-79
2021/07/12 03:04:12;;;;;;;14.60;13.07;;;18.30;99.90;;;;;;5128606;27;20134;-79
2021/07/12 03:06:39;;;;;;;15.93;13.48;;;18.20;99.90;;;;;;5104069;28;20031;-79
2021/07/12 03:09:07;;;;;;;15.02;13.45;;;18.30;99.90;;;;;;5122661;27;20034;-78
2021/07/12 03:11:47;;;;;;;15.02;13.43;;;18.30;99.90;;;;;;5101954;27;20040;-79
2021/07/12 03:14:17;;;;;;;14.80;13.40;;;18.30;99.90;;;;;;5124836;27;20482;-79
2021/07/12 03:16:43;;;;;;;16.02;13.75;;;18.30;99.90;;;;;;5106661;27;20051;-79
2021/07/12 03:19:15;;;;;;;16.42;13.35;;;18.30;99.90;;;;;;5101339;27;20046;-78
2021/07/12 03:21:42;;;;;;;14.98;13.30;;;18.30;99.90;;;;;;5110711;27;20471;-79
2021/07/12 03:24:10;;;;;;;14.88;13.27;;;18.30;99.90;;;;;;5093624;27;20047;-79
2021/07/12 03:26:47;;;;;;;14.77;13.27;;;18.30;99.90;;;;;;5106332;27;20027;-79
2021/07/12 03:29:14;;;;;;;15.05;13.23;;;18.30;99.90;;;;;;5123651;27;20471;-79
2021/07/12 03:31:42;;;;;;;17.27;13.85;;;18.40;99.90;;;;;;5112239;27;20478;-79
2021/07/12 03:34:12;;;;;;;14.50;13.10;;;18.40;99.90;;;;;;5099965;27;20101;-78
2021/07/12 03:36:38;;;;;;;17.73;15.32;;;18.40;99.90;;;;;;5107159;27;20419;-79
2021/07/12 03:39:06;;;;;;;16.95;14.75;;;18.40;99.90;;;;;;5127374;27;20039;-79
2021/07/12 03:41:32;;;;;;;16.33;14.38;;;18.40;99.90;;;;;;5124711;27;20031;-79
2021/07/12 03:44:01;;;;;;;15.70;14.10;;;18.40;99.90;;;;;;5103964;27;20479;-78
2021/07/12 03:46:27;;;;;;;14.90;13.35;;;18.40;99.90;;;;;;5120353;27;20084;-78
2021/07/12 03:48:56;;;;;;;19.25;15.73;;;18.40;99.90;;;;;;5125772;27;20443;-79
2021/07/12 03:51:25;;;;;;;17.65;15.60;;;18.50;99.90;;;;;;5124804;27;20032;-78
2021/07/12 03:53:51;;;;;;;16.77;14.98;;;18.50;99.90;;;;;;5125577;27;20107;-79
2021/07/12 03:56:17;;;;;;;16.80;14.02;;;18.50;99.90;;;;;;5124395;27;20482;-79
2021/07/12 03:58:44;;;;;;;17.10;14.07;;;18.50;99.90;;;;;;5093500;27;20046;-79
2021/07/12 04:01:19;;;;;;;15.00;13.48;;;18.60;99.90;;;;;;5104838;27;20038;-78
2021/07/12 04:03:48;;;;;;;17.73;14.60;;;18.60;99.90;;;;;;5124883;27;20392;-78
2021/07/12 04:06:16;;;;;;;16.73;14.93;;;18.60;99.90;;;;;;5122798;27;20050;-78
2021/07/12 04:08:44;;;;;;;16.42;14.32;;;18.60;99.90;;;;;;5088217;27;20050;-78
2021/07/12 04:11:11;;;;;;;18.08;16.17;;;18.70;99.90;;;;;;5121171;27;20394;-78
2021/07/12 04:13:37;;;;;;;17.90;16.10;;;18.60;99.90;;;;;;5127820;27;20115;-78
2021/07/12 04:16:04;;;;;;;17.75;14.98;;;18.60;99.90;;;;;;5124968;27;20031;-78
2021/07/12 04:18:30;;;;;;;16.83;14.70;;;18.60;99.90;;;;;;5124910;27;20032;-78
2021/07/12 04:20:56;;;;;;;21.85;16.25;;;18.70;99.90;;;;;;5124447;27;20366;-78
2021/07/12 04:23:22;;;;;;;18.33;15.25;;;18.70;99.90;;;;;;5120202;27;20039;-79
2021/07/12 04:25:48;;;;;;;21.10;15.10;;;18.70;99.90;;;;;;5120585;27;20035;-79
2021/07/12 04:28:14;;;;;;;17.52;14.48;;;18.70;99.90;;;;;;5125115;27;20035;-78
2021/07/12 04:30:40;;;;;;;16.55;14.85;;;18.70;99.90;;;;;;5088855;27;20362;-79
2021/07/12 04:33:07;;;;;;;14.98;13.38;;;18.70;99.90;;;;;;5108706;27;20031;-78
2021/07/12 04:35:33;;;;;;;15.35;13.85;;;18.70;99.90;;;;;;5103330;27;20079;-79
2021/07/12 04:38:02;;;;;;;14.30;12.80;;;18.70;99.90;;;;;;5106685;27;20046;-79
2021/07/12 04:40:28;;;;;;;15.80;14.05;;;18.70;99.90;;;;;;5123022;27;20048;-79
2021/07/12 04:42:54;;;;;;;15.73;14.10;;;18.70;99.90;;;;;;5121598;27;20095;-78
2021/07/12 04:45:20;;;;;;;16.38;13.80;;;18.70;99.90;;;;;;5085088;27;21030;-79
2021/07/12 04:47:46;;;;;;;15.15;13.20;;;18.70;99.90;;;;;;5085714;27;20399;-79
2021/07/12 04:50:12;;;;;;;17.42;13.10;;;18.70;99.90;;;;;;5116032;27;20031;-78
2021/07/12 04:52:44;;;;;;;16.83;14.30;;;18.70;99.90;;;;;;5125226;27;20459;-79
2021/07/12 04:55:10;;;;;;;16.30;14.57;;;18.80;99.90;;;;;;5122374;27;20482;-78
2021/07/12 04:57:37;;;;;;;17.17;15.02;;;18.80;99.90;;;;;;5107787;27;20031;-79
2021/07/12 05:00:08;;;;;;;21.83;15.80;;;18.80;99.90;;;;;;5107896;27;20036;-79
2021/07/12 05:02:35;;;;;;;19.30;15.57;;;18.80;99.90;;;;;;5104866;27;20136;-79
2021/07/12 05:05:03;;;;;;;20.75;15.50;;;18.90;99.90;;;;;;5118159;27;20035;-79
2021/07/12 05:07:29;;;;;;;23.02;15.18;;;19.00;99.90;;;;;;5104993;27;20110;-76
2021/07/12 05:09:58;;;;;;;17.13;10.95;;;19.10;99.90;;;;;;5122308;27;20078;-83
2021/07/12 05:12:27;;;;;;;12.88;10.50;;;19.30;99.90;;;;;;5100798;27;20031;-82
2021/07/12 05:14:53;;;;;;;12.18;10.85;;;19.50;99.90;;;;;;5105809;27;20043;-85
2021/07/12 05:17:19;;;;;;;15.63;11.20;;;19.60;99.90;;;;;;5103800;27;20062;-84
2021/07/12 05:19:44;;;;;;;16.35;14.20;;;19.80;99.90;;;;;;5106190;27;20465;-83
2021/07/12 05:22:10;;;;;;;12.75;11.40;;;19.90;99.90;;;;;;5125730;27;20100;-83
2021/07/12 05:24:36;;;;;;;12.98;11.68;;;20.00;99.90;;;;;;5098512;28;20130;-82
2021/07/12 05:27:02;;;;;;;19.00;14.98;;;20.00;99.90;;;;;;5110283;27;20416;-78
2021/07/12 05:29:28;;;;;;;24.67;15.18;;;20.10;99.90;;;;;;5119679;27;20471;-78
2021/07/12 05:31:54;;;;;;;15.82;14.00;;;19.90;99.90;;;;;;5121363;27;20043;-78
2021/07/12 05:34:20;;;;;;;20.27;17.52;;;19.90;99.90;;;;;;5105941;28;20759;-76
2021/07/12 05:36:46;;;;;;;25.90;18.45;;;19.80;99.90;;;;;;5122186;27;20087;-76
2021/07/12 05:39:16;;;;;;;21.88;19.10;;;19.80;99.90;;;;;;5105584;27;20486;-76
2021/07/12 05:41:41;;;;;;;24.33;19.55;;;19.80;99.90;;;;;;5126172;27;20359;-77
2021/07/12 05:44:07;;;;;;;23.48;18.70;;;19.80;99.90;;;;;;5126607;27;20117;-78
2021/07/12 05:46:33;;;;;;;24.80;19.55;;;19.90;99.90;;;;;;5100846;27;20142;-78
2021/07/12 05:48:59;;;;;;;24.95;19.42;;;19.90;99.90;;;;;;5109006;27;20043;-79
2021/07/12 05:51:25;;;;;;;22.58;18.52;;;20.00;99.90;;;;;;5106174;27;20032;-77
2021/07/12 05:53:51;;;;;;;21.13;18.67;;;20.00;99.90;;;;;;5126736;27;20457;-76
2021/07/12 05:56:16;;;;;;;20.23;17.17;;;20.10;99.90;;;;;;5126444;27;20106;-76
2021/07/12 05:58:42;;;;;;;20.60;17.35;;;20.00;99.90;;;;;;5094402;28;20039;-76
2021/07/12 06:01:08;;;;;;;19.80;17.70;;;20.20;99.90;;;;;;5126069;27;20340;-76
2021/07/12 06:03:34;;;;;;;20.42;17.33;;;20.10;99.90;;;;;;5103934;27;20048;-78
2021/07/12 06:06:00;;;;;;;21.35;17.83;;;20.20;99.90;;;;;;5121805;27;20035;-78
2021/07/12 06:08:25;;;;;;;21.67;17.13;;;20.30;99.90;;;;;;5120966;27;20606;-78
2021/07/12 06:10:52;;;;;;;22.10;17.45;;;20.30;99.90;;;;;;5098127;27;20047;-78
2021/07/12 06:13:17;;;;;;;22.35;16.73;;;20.20;99.90;;;;;;5129591;27;20024;-77
2021/07/12 06:15:44;;;;;;;21.33;17.48;;;20.30;99.90;;;;;;5103781;27;20043;-78
2021/07/12 06:18:14;;;;;;;19.38;16.20;;;20.20;99.90;;;;;;5120064;27;20091;-78
2021/07/12 06:20:41;;;;;;;19.00;16.65;;;20.30;99.90;;;;;;5119316;27;20040;-78
2021/07/12 06:23:07;;;;;;;25.00;16.77;;;20.20;99.90;;;;;;5109721;27;20478;-79
2021/07/12 06:25:33;;;;;;;20.33;16.83;;;20.30;99.90;;;;;;5127902;27;20059;-77
2021/07/12 06:27:59;;;;;;;20.63;16.17;;;20.40;99.90;;;;;;5127230;27;20031;-77
2021/07/12 06:30:25;;;;;;;22.65;16.35;;;20.50;99.90;;;;;;5124116;27;20031;-78
2021/07/12 06:32:51;;;;;;;17.90;15.88;;;20.50;99.90;;;;;;5107184;27;20039;-78
2021/07/12 06:35:19;;;;;;;19.63;15.15;;;20.60;99.90;;;;;;5100924;27;20055;-78
2021/07/12 06:37:45;;;;;;;16.77;15.05;;;20.60;99.90;;;;;;5101451;27;20028;-80
2021/07/12 06:40:11;;;;;;;17.63;14.18;;;20.70;99.90;;;;;;5102798;27;20088;-81
2021/07/12 06:42:37;;;;;;;16.85;15.05;;;20.80;99.90;;;;;;5129834;27;20035;-79
2021/07/12 06:45:04;;;;;;;15.75;14.02;;;20.80;99.90;;;;;;5111735;27;20569;-80
2021/07/12 06:47:33;;;;;;;16.63;14.50;;;20.90;99.90;;;;;;5110448;27;20495;-80
2021/07/12 06:49:59;;;;;;;18.40;14.25;;;20.90;99.90;;;;;;5120972;27;20359;-79
2021/07/12 06:52:28;;;;;;;15.80;14.15;;;21.00;99.90;;;;;;5120831;27;20030;-79
2021/07/12 06:54:54;;;;;;;15.52;14.00;;;21.00;99.90;;;;;;5130279;27;20394;-79
2021/07/12 06:57:20;;;;;;;15.07;13.48;;;21.00;99.90;;;;;;5107910;27;20035;-79
2021/07/12 06:59:46;;;;;;;15.10;13.48;;;21.10;99.90;;;;;;5106823;27;20055;-78
2021/07/12 07:02:11;;;;;;;16.50;13.93;;;21.00;99.90;;;;;;5135247;27;20031;-78
2021/07/12 07:04:41;;;;;;;17.15;13.80;;;21.10;99.90;;;;;;5117683;27;20047;-78
2021/07/12 07:07:07;;;;;;;18.23;13.32;;;21.20;99.90;;;;;;5126742;27;20055;-78
2021/07/12 07:09:32;;;;;;;14.48;12.95;;;21.20;99.90;;;;;;5138489;27;20118;-78
2021/07/12 07:11:59;;;;;;;15.05;13.55;;;21.40;99.90;;;;;;5103385;27;20052;-78
2021/07/12 07:14:25;;;;;;;17.13;13.25;;;21.50;99.90;;;;;;5110117;27;20046;-77
2021/07/12 07:16:51;;;;;;;14.50;13.00;;;21.60;99.90;;;;;;5134614;27;20034;-77
2021/07/12 07:19:17;;;;;;;15.70;13.32;;;21.70;99.90;;;;;;5136894;27;20034;-78
2021/07/12 07:21:42;;;;;;;15.95;13.18;;;21.80;99.90;;;;;;5134637;27;20521;-77
2021/07/12 07:24:08;;;;;;;13.95;12.55;;;22.00;99.90;;;;;;5114774;27;20047;-76
2021/07/12 07:26:34;;;;;;;12.80;11.57;;;22.20;99.90;;;;;;5128302;27;20028;-78
2021/07/12 07:29:00;;;;;;;14.32;12.55;;;22.40;99.90;;;;;;5114011;27;20054;-78
2021/07/12 07:31:26;;;;;;;12.50;11.25;;;22.60;99.90;;;;;;5137092;27;20073;-78
2021/07/12 07:33:54;;;;;;;12.80;11.45;;;22.60;99.90;;;;;;5112606;27;20130;-78
2021/07/12 07:36:20;;;;;;;11.25;10.15;;;22.80;99.90;;;;;;5126038;27;20111;-77
2021/07/12 07:38:46;;;;;;;11.77;10.57;;;23.00;99.90;;;;;;5132413;27;20121;-78
2021/07/12 07:41:11;;;;;;;11.65;10.55;;;23.20;99.90;;;;;;5134090;27;20031;-80
2021/07/12 07:43:47;;;;;;;12.80;10.80;;;23.00;99.90;;;;;;5113143;27;20043;-82
2021/07/12 07:46:40;;;;;;;12.20;10.63;;;22.80;99.90;;;;;;5105434;27;20039;-81
2021/07/12 07:49:07;;;;;;;10.63;9.50;;;22.80;99.90;;;;;;5084734;27;20113;-79
2021/07/12 07:51:36;;;;;;;12.23;9.60;;;23.00;99.90;;;;;;5139025;27;20035;-80
2021/07/12 07:54:05;;;;;;;9.80;8.80;;;22.90;99.90;;;;;;5116528;27;20036;-80
2021/07/12 07:56:41;;;;;;;10.45;9.45;;;23.00;99.90;;;;;;5120672;27;20042;-80
2021/07/12 07:59:10;;;;;;;11.43;10.32;;;23.10;99.90;;;;;;5134866;27;20038;-80
2021/07/12 08:01:45;;;;;;;12.13;10.20;;;23.20;99.90;;;;;;5128155;27;20027;-80
2021/07/12 08:04:11;;;;;;;10.70;8.48;;;23.40;99.90;;;;;;5108959;27;20044;-80
2021/07/12 08:06:37;;;;;;;9.38;8.38;;;23.50;99.90;;;;;;5096426;27;20044;-81
2021/07/12 08:09:04;;;;;;;11.52;10.32;;;23.60;99.90;;;;;;5129617;27;20031;-81
2021/07/12 08:11:33;;;;;;;11.43;10.23;;;23.60;99.90;;;;;;5086177;27;20043;-83
2021/07/12 08:14:03;;;;;;;10.57;9.52;;;23.60;99.90;;;;;;5120273;27;20075;-83
2021/07/12 08:16:32;;;;;;;10.02;9.10;;;23.80;99.90;;;;;;5120169;27;20034;-82
2021/07/12 08:18:58;;;;;;;12.32;9.82;;;23.60;99.90;;;;;;5106413;27;20062;-80
2021/07/12 08:21:24;;;;;;;11.52;10.27;;;23.50;99.90;;;;;;5127573;27;20077;-82
2021/07/12 08:23:50;;;;;;;12.43;9.75;;;23.80;99.90;;;;;;5106787;27;20528;-82
2021/07/12 08:26:16;;;;;;;11.25;9.57;;;23.90;99.90;;;;;;5117768;27;20047;-83
2021/07/12 08:28:42;;;;;;;9.98;9.07;;;24.00;99.90;;;;;;5109247;27;20116;-82
2021/07/12 08:31:10;;;;;;;10.02;9.02;;;24.10;99.90;;;;;;5104549;27;20047;-81
2021/07/12 08:33:36;;;;;;;10.98;8.30;;;24.00;99.90;;;;;;5107015;27;20092;-83
2021/07/12 08:36:02;;;;;;;13.27;8.70;;;24.00;99.90;;;;;;5109869;27;20035;-83
2021/07/12 08:38:31;;;;;;;10.30;9.18;;;24.10;99.90;;;;;;5091917;27;20081;-84
2021/07/12 08:40:57;;;;;;;10.60;9.48;;;24.00;99.90;;;;;;5086035;27;20131;-81
2021/07/12 08:43:24;;;;;;;11.25;9.77;;;24.00;99.90;;;;;;5088811;27;20066;-84
2021/07/12 08:45:50;;;;;;;10.27;8.98;;;24.10;99.90;;;;;;5122384;27;20035;-84
2021/07/12 08:48:16;;;;;;;10.75;9.75;;;24.30;99.90;;;;;;5108910;28;20375;-82
2021/07/12 08:50:43;;;;;;;10.05;9.15;;;24.40;99.90;;;;;;5111970;27;20473;-81
2021/07/12 08:53:12;;;;;;;11.52;10.07;;;24.50;99.90;;;;;;5110426;27;20394;-85
2021/07/12 08:55:38;;;;;;;15.95;10.82;;;24.30;99.90;;;;;;5114679;27;20035;-81
2021/07/12 08:58:13;;;;;;;11.38;10.27;;;24.10;99.90;;;;;;5114413;27;20039;-83
2021/07/12 09:00:41;;;;;;;11.40;10.30;;;24.20;99.90;;;;;;5108490;27;20055;-85
2021/07/12 09:03:29;;;;;;;16.10;10.18;;;24.20;99.90;;;;;;5081134;27;20039;-84
2021/07/12 09:05:59;;;;;;;12.52;10.30;;;24.30;99.90;;;;;;5112487;27;20039;-82
2021/07/12 09:08:36;;;;;;;12.75;10.45;;;24.60;99.90;;;;;;5096501;27;20402;-87
2021/07/12 09:11:23;;;;;;;12.20;9.77;;;24.60;99.90;;;;;;5118008;27;20050;-88
2021/07/12 09:14:11;;;;;;;12.18;10.30;;;24.70;99.90;;;;;;5119703;27;20138;-84
2021/07/12 09:16:43;;;;;;;10.75;8.85;;;24.70;99.90;;;;;;5105009;28;20035;-84
2021/07/12 09:19:19;;;;;;;14.57;10.32;;;24.60;99.90;;;;;;5086306;28;20047;-86
2021/07/12 09:22:21;;;;;;;16.90;10.00;;;24.40;99.90;;;;;;5118334;27;20027;-84
2021/07/12 09:24:57;;;;;;;13.38;11.27;;;24.50;99.90;;;;;;5051486;28;20060;-82
2021/07/12 09:27:26;;;;;;;10.82;9.57;;;24.20;99.90;;;;;;5058244;28;20049;-83
2021/07/12 09:30:14;;;;;;;11.25;9.18;;;24.80;99.90;;;;;;5048586;28;20047;-86
2021/07/12 09:32:43;;;;;;;10.63;9.27;;;24.80;99.90;;;;;;5048079;28;20094;-86
2021/07/12 09:35:20;;;;;;;9.63;8.52;;;24.80;99.90;;;;;;5038777;28;20512;-85
2021/07/12 09:37:54;;;;;;;9.30;8.40;;;24.70;99.90;;;;;;5039541;28;20049;-84
2021/07/12 09:40:20;;;;;;;8.93;7.88;;;25.00;99.90;;;;;;5059890;28;20068;-84
2021/07/12 09:42:49;;;;;;;8.20;7.25;;;25.00;99.90;;;;;;5033226;28;20044;-84
2021/07/12 09:45:18;;;;;;;8.55;7.57;;;25.10;99.90;;;;;;5037729;28;20075;-84
2021/07/12 09:47:46;;;;;;;8.93;7.30;;;25.00;99.90;;;;;;5061939;28;20056;-84
2021/07/12 09:50:17;;;;;;;9.75;7.35;;;25.20;99.90;;;;;;5042193;28;20037;-83
2021/07/12 09:52:51;;;;;;;12.32;8.13;;;24.90;99.90;;;;;;5048316;28;20041;-84
2021/07/12 09:55:22;;;;;;;9.70;7.07;;;24.70;99.90;;;;;;5046538;28;20139;-85
2021/07/12 09:58:12;;;;;;;8.60;7.70;;;24.90;99.90;;;;;;5037525;28;20053;-84
2021/07/12 10:00:57;;;;;;;8.50;7.60;;;24.80;99.90;;;;;;5076545;28;20044;-86
2021/07/12 10:03:23;;;;;;;8.43;7.28;;;24.60;99.90;;;;;;5080140;28;20383;-82
2021/07/12 10:05:57;;;;;;;9.48;7.13;;;24.60;99.90;;;;;;5080731;28;20044;-82
2021/07/12 10:08:25;;;;;;;13.73;9.90;;;24.90;99.90;;;;;;5081651;28;20431;-86
2021/07/12 10:10:51;;;;;;;10.07;9.07;;;24.70;99.90;;;;;;5086247;28;20119;-84
2021/07/12 10:13:16;;;;;;;11.00;8.88;;;24.80;99.90;;;;;;5083167;28;20044;-84
2021/07/12 10:15:43;;;;;;;13.65;8.70;;;24.80;99.90;;;;;;5068299;28;20044;-88
2021/07/12 10:18:09;;;;;;;9.35;8.43;;;24.80;99.90;;;;;;5094791;28;20044;-87
2021/07/12 10:20:39;;;;;;;10.88;9.38;;;24.80;99.90;;;;;;5103277;28;20032;-83
2021/07/12 10:23:07;;;;;;;11.07;8.70;;;24.70;99.90;;;;;;5108048;28;20114;-85
2021/07/12 10:25:35;;;;;;;12.05;9.05;;;24.80;99.90;;;;;;5100550;28;20047;-84
2021/07/12 10:28:04;;;;;;;11.25;9.45;;;24.50;99.90;;;;;;5091904;27;20047;-80
2021/07/12 10:30:37;;;;;;;12.15;9.52;;;24.80;99.90;;;;;;5102823;28;20032;-84
2021/07/12 10:33:09;;;;;;;10.95;9.85;;;24.80;99.90;;;;;;5104843;27;20105;-80
2021/07/12 10:35:47;;;;;;;10.40;9.27;;;24.70;99.90;;;;;;5110041;28;20085;-81
2021/07/12 10:38:15;;;;;;;12.50;11.18;;;24.70;99.90;;;;;;5100837;27;20076;-81
2021/07/12 10:41:00;;;;;;;12.50;10.95;;;24.50;99.90;;;;;;5110213;28;20039;-81
2021/07/12 10:43:46;;;;;;;12.60;11.18;;;24.40;99.90;;;;;;5110234;27;20055;-79
2021/07/12 10:46:27;;;;;;;12.40;11.10;;;24.30;99.90;;;;;;5108649;27;20111;-80
2021/07/12 10:48:58;;;;;;;12.43;11.13;;;24.30;99.90;;;;;;5111883;27;20157;-81
2021/07/12 10:51:25;;;;;;;13.18;11.68;;;24.30;99.90;;;;;;5092255;27;20044;-80
2021/07/12 10:54:05;;;;;;;39.08;11.25;;;24.20;99.90;;;;;;5085513;28;20048;-78
2021/07/12 10:56:57;;;;;;;13.38;10.60;;;24.30;99.90;;;;;;5106471;28;20080;-81
2021/07/12 10:59:33;;;;;;;15.15;11.73;;;24.40;99.90;;;;;;5099391;27;20047;-80
2021/07/12 11:02:01;;;;;;;12.45;11.25;;;24.50;99.90;;;;;;5103348;27;20023;-82
2021/07/12 11:04:35;;;;;;;19.40;10.98;;;24.50;99.90;;;;;;5109503;28;20051;-80
2021/07/12 11:07:05;;;;;;;11.90;10.70;;;24.50;99.90;;;;;;5098720;27;20040;-80
2021/07/12 11:09:51;;;;;;;12.23;11.02;;;24.50;99.90;;;;;;5104033;27;20056;-80
2021/07/12 11:12:37;;;;;;;12.88;10.57;;;24.80;99.90;;;;;;5108955;27;20043;-78
2021/07/12 11:15:34;;;;;;;12.52;10.27;;;25.00;99.90;;;;;;5099174;28;20154;-80
2021/07/12 11:18:04;;;;;;;11.05;9.93;;;25.30;99.90;;;;;;5109208;28;20102;-78
2021/07/12 11:20:39;;;;;;;11.68;10.43;;;25.50;99.90;;;;;;5106900;27;20070;-78
2021/07/12 11:23:05;;;;;;;10.82;9.48;;;25.40;99.90;;;;;;5103868;28;20118;-81
2021/07/12 11:25:42;;;;;;;11.50;10.10;;;25.50;99.90;;;;;;5114254;27;20155;-78
2021/07/12 11:28:14;;;;;;;11.65;10.40;;;25.30;99.90;;;;;;5124942;27;20088;-81
2021/07/12 11:30:41;;;;;;;11.93;10.82;;;25.10;99.90;;;;;;5101278;27;20133;-83
2021/07/12 11:33:08;;;;;;;12.32;11.00;;;24.70;99.90;;;;;;5107103;27;20023;-82
2021/07/12 11:35:34;;;;;;;13.30;10.68;;;24.60;99.90;;;;;;5110045;27;20101;-82
2021/07/12 11:38:02;;;;;;;12.07;10.88;;;24.50;99.90;;;;;;5114472;27;20223;-80
2021/07/12 11:40:28;;;;;;;18.08;12.65;;;24.50;99.90;;;;;;5122627;27;20046;-79
2021/07/12 11:42:54;;;;;;;14.07;12.70;;;24.30;99.90;;;;;;5103311;27;20494;-79
2021/07/12 11:45:23;;;;;;;14.65;13.13;;;24.20;99.90;;;;;;5104498;27;20078;-81
2021/07/12 11:47:55;;;;;;;15.90;13.85;;;24.20;99.90;;;;;;5108873;27;20126;-77
2021/07/12 11:50:29;;;;;;;16.25;14.65;;;24.20;99.90;;;;;;5106102;27;20146;-82
2021/07/12 11:53:04;;;;;;;16.00;14.38;;;24.30;99.90;;;;;;5086951;27;20044;-82
2021/07/12 11:55:31;;;;;;;;;;;24.20;99.90;;;;;;5110951;27;20050;-82
2021/07/12 11:58:00;;;;;;;20.00;14.77;;;24.20;99.90;;;;;;5127668;27;19916;-80
2021/07/12 12:01:15;;;;;;;17.23;14.98;;;24.10;99.90;;;;;;5125343;27;20039;-82
2021/07/12 12:03:43;;;;;;;16.95;14.98;;;24.10;99.90;;;;;;5127259;27;20066;-82
2021/07/12 12:06:08;;;;;;;18.73;15.55;;;24.10;99.90;;;;;;5106319;27;20481;-79
2021/07/12 12:08:34;;;;;;;17.27;14.00;;;24.10;99.90;;;;;;5123332;27;20034;-79
2021/07/12 12:11:00;;;;;;;16.40;14.40;;;24.20;99.90;;;;;;5130601;27;20065;-79
2021/07/12 12:13:28;;;;;;;17.02;14.70;;;24.20;99.90;;;;;;5104715;27;20052;-82
2021/07/12 12:15:54;;;;;;;18.42;14.07;;;24.30;99.90;;;;;;5117764;27;20050;-82
2021/07/12 12:18:25;;;;;;;15.63;14.10;;;24.20;99.90;;;;;;5107809;27;20027;-81
2021/07/12 12:20:59;;;;;;;15.40;13.35;;;24.40;99.90;;;;;;5107271;27;20045;-82
2021/07/12 12:23:26;;;;;;;17.33;13.30;;;24.50;99.90;;;;;;5109106;27;20035;-82
2021/07/12 12:26:10;;;;;;;14.10;12.73;;;24.50;99.90;;;;;;5095946;27;20084;-81
2021/07/12 12:28:44;;;;;;;15.02;13.43;;;24.70;99.90;;;;;;5098195;28;20044;-81
2021/07/12 12:31:15;;;;;;;14.25;11.27;;;25.00;99.90;;;;;;5097334;28;20116;-82
2021/07/12 12:33:55;;;;;;;12.80;11.40;;;25.00;99.90;;;;;;5085558;28;20059;-80
2021/07/12 12:36:23;;;;;;;12.40;11.10;;;25.10;99.90;;;;;;5115704;27;20046;-81
2021/07/12 12:38:57;;;;;;;12.25;10.85;;;25.20;99.90;;;;;;5138679;27;20042;-81
2021/07/12 12:41:29;;;;;;;10.80;9.05;;;25.40;99.90;;;;;;5111587;27;20039;-82
2021/07/12 12:44:15;;;;;;;12.35;10.00;;;25.60;99.90;;;;;;5135860;27;20039;-81
2021/07/12 12:46:59;;;;;;;12.55;9.43;;;25.70;99.90;;;;;;5090694;27;20486;-81